Terminal Aerodrome Forecast
Issued by NWS

Home | Current Version | Previous Version | Text Only | Print | Product List | Glossary On
Versions: 1 2 3 4 5 6 7 8 9 10 11 12 13 14 15 16 17 18 19 20 21 22 23 24 25 26 27 28 29 30 31 32 33 34 35 36 37
173
FTUS41 KBOX 282330
TAFBED
TAF
KBED 282330Z 2900/2924 09004KT P6SM BKN070
     FM291400 10005KT P6SM VCSH OVC100
     FM291700 09005KT 4SM RA OVC025
     FM291900 08008KT 2SM -RA BR OVC025
     FM292200 07007KT 3SM -SHRADZ BR OVC010=

USA.gov is the U.S. government's official web portal to all federal, state and local government web resources and services.